createdAt,value
2022-10-22T00:01:24.745Z,0.30
2022-10-22T00:03:53.018Z,0.57
2022-10-22T00:06:21.329Z,0.37
2022-10-22T00:08:51.231Z,0.40
2022-10-22T00:11:21.091Z,0.30
2022-10-22T00:13:49.594Z,0.50
2022-10-22T00:16:17.950Z,0.60
2022-10-22T00:18:46.197Z,1.67
2022-10-22T00:21:14.557Z,0.50
2022-10-22T00:23:43.476Z,0.57
2022-10-22T00:26:13.714Z,0.93
2022-10-22T00:28:41.997Z,0.67
2022-10-22T00:31:10.319Z,0.40
2022-10-22T00:33:38.642Z,0.63
2022-10-22T00:36:07.494Z,0.60
2022-10-22T00:38:36.061Z,1.00
2022-10-22T00:41:04.394Z,0.60
2022-10-22T00:43:34.349Z,0.60
2022-10-22T00:46:02.609Z,2.60
2022-10-22T00:48:34.580Z,0.40
2022-10-22T00:51:05.613Z,0.40
2022-10-22T00:53:37.996Z,0.97
2022-10-22T00:56:07.854Z,0.40
2022-10-22T00:58:41.266Z,0.50
2022-10-22T01:01:14.156Z,0.30
2022-10-22T01:03:42.612Z,1.30
2022-10-22T01:06:16.423Z,0.73
2022-10-22T01:08:51.094Z,0.40
2022-10-22T01:11:28.731Z,0.40
2022-10-22T01:14:05.876Z,0.47
2022-10-22T01:16:38.753Z,0.60
2022-10-22T01:19:28.027Z,0.40
2022-10-22T01:22:02.065Z,0.83
2022-10-22T01:24:42.689Z,0.57
2022-10-22T01:27:21.475Z,0.30
2022-10-22T01:29:54.958Z,0.53
2022-10-22T01:32:26.487Z,0.47
2022-10-22T01:35:01.457Z,0.33
2022-10-22T01:37:33.448Z,0.50
2022-10-22T01:40:03.578Z,0.20
2022-10-22T01:42:31.871Z,0.30
2022-10-22T01:45:01.548Z,1.30
2022-10-22T01:47:42.129Z,0.83
2022-10-22T01:50:43.195Z,1.07
2022-10-22T01:53:22.883Z,0.30
2022-10-22T01:56:05.822Z,0.30
2022-10-22T01:58:43.925Z,0.20
2022-10-22T02:01:23.814Z,0.60
2022-10-22T02:03:58.611Z,0.53
2022-10-22T02:06:29.045Z,0.33
2022-10-22T02:08:59.027Z,0.30
2022-10-22T02:11:27.797Z,0.30
2022-10-22T02:13:59.920Z,0.37
2022-10-22T02:16:33.373Z,0.30
2022-10-22T02:19:07.361Z,1.37
2022-10-22T02:21:35.618Z,0.40
2022-10-22T02:24:03.790Z,0.50
2022-10-22T02:26:38.927Z,0.30
2022-10-22T02:29:14.961Z,0.80
2022-10-22T02:31:48.346Z,0.90
2022-10-22T02:34:23.795Z,0.67
2022-10-22T02:36:53.426Z,0.80
2022-10-22T02:39:22.902Z,0.40
2022-10-22T02:41:51.181Z,0.50
2022-10-22T02:44:23.191Z,0.40
2022-10-22T02:46:52.880Z,0.90
2022-10-22T02:49:21.157Z,1.47
2022-10-22T02:51:50.118Z,0.50
2022-10-22T02:54:18.321Z,0.30
2022-10-22T02:56:46.604Z,0.67
2022-10-22T02:59:14.874Z,0.77
2022-10-22T03:01:44.093Z,0.30
2022-10-22T03:04:13.817Z,1.20
2022-10-22T03:06:44.205Z,0.53
2022-10-22T03:09:12.989Z,0.80
2022-10-22T03:11:41.321Z,0.57
2022-10-22T03:14:09.662Z,0.50
2022-10-22T03:16:37.921Z,0.40
2022-10-22T03:19:06.241Z,0.30
2022-10-22T03:21:40.423Z,0.90
2022-10-22T03:24:14.646Z,0.97
2022-10-22T03:26:44.702Z,0.70
2022-10-22T03:29:15.952Z,1.07
2022-10-22T03:31:44.225Z,0.60
2022-10-22T03:34:13.570Z,1.83
2022-10-22T03:36:43.565Z,2.30
2022-10-22T03:39:13.607Z,0.73
2022-10-22T03:41:42.909Z,2.30
2022-10-22T03:44:11.817Z,0.73
2022-10-22T03:46:40.109Z,1.27
2022-10-22T03:49:08.401Z,0.60
2022-10-22T03:51:37.080Z,0.50
2022-10-22T03:54:07.091Z,0.97
2022-10-22T03:56:35.422Z,0.80
2022-10-22T03:59:03.836Z,0.47
2022-10-22T04:01:33.252Z,0.73
2022-10-22T04:04:01.556Z,0.40
2022-10-22T04:06:31.514Z,0.30
2022-10-22T04:09:01.263Z,0.50
2022-10-22T04:11:31.054Z,0.30
2022-10-22T04:13:59.398Z,0.30
2022-10-22T04:16:31.131Z,0.30
2022-10-22T04:18:59.959Z,0.73
2022-10-22T04:21:28.249Z,0.30
2022-10-22T04:23:56.441Z,0.57
2022-10-22T04:26:25.081Z,0.30
2022-10-22T04:28:55.040Z,0.83
2022-10-22T04:31:25.475Z,0.40
2022-10-22T04:33:56.116Z,0.30
2022-10-22T04:36:25.654Z,0.50
2022-10-22T04:38:55.980Z,0.30
2022-10-22T04:41:26.050Z,0.53
2022-10-22T04:43:56.652Z,0.30
2022-10-22T04:46:26.592Z,0.43
2022-10-22T04:48:54.901Z,0.60
2022-10-22T04:51:25.516Z,0.60
2022-10-22T04:53:53.868Z,0.70
2022-10-22T04:56:25.115Z,0.90
2022-10-22T04:58:58.040Z,0.77
2022-10-22T05:01:29.111Z,1.33
2022-10-22T05:03:59.169Z,0.50
2022-10-22T05:06:28.308Z,0.70
2022-10-22T05:08:58.830Z,2.23
2022-10-22T05:11:29.493Z,0.70
2022-10-22T05:14:00.900Z,1.50
2022-10-22T05:16:30.553Z,3.10
2022-10-22T05:19:00.615Z,1.10
2022-10-22T05:21:29.274Z,0.80
2022-10-22T05:23:59.950Z,0.40
2022-10-22T05:26:29.617Z,0.70
2022-10-22T05:28:59.252Z,0.60
2022-10-22T05:31:28.957Z,0.63
2022-10-22T05:33:57.418Z,0.63
2022-10-22T05:36:25.891Z,0.40
2022-10-22T05:38:54.687Z,0.83
2022-10-22T05:41:24.765Z,0.63
2022-10-22T05:43:55.490Z,1.27
2022-10-22T05:46:27.097Z,0.30
2022-10-22T05:48:57.285Z,0.30
2022-10-22T05:51:26.632Z,0.50
2022-10-22T05:53:56.556Z,0.77
2022-10-22T05:56:26.237Z,1.07
2022-10-22T05:58:54.861Z,1.27
2022-10-22T06:01:27.429Z,0.70
2022-10-22T06:03:56.878Z,1.23
2022-10-22T06:06:35.294Z,1.37
2022-10-22T06:09:06.656Z,0.87
2022-10-22T06:11:35.469Z,0.53
2022-10-22T06:14:04.585Z,0.60
2022-10-22T06:16:34.244Z,1.33
2022-10-22T06:19:03.408Z,0.63
2022-10-22T06:21:32.377Z,1.60
2022-10-22T06:24:01.600Z,0.40
2022-10-22T06:26:30.034Z,1.00
2022-10-22T06:28:59.071Z,0.30
2022-10-22T06:31:28.552Z,0.30
2022-10-22T06:33:58.631Z,0.47
2022-10-22T06:36:26.881Z,1.07
2022-10-22T06:38:56.173Z,0.67
2022-10-22T06:41:28.626Z,1.27
2022-10-22T06:43:58.492Z,0.27
2022-10-22T06:46:27.660Z,0.50
2022-10-22T06:48:59.420Z,0.30
2022-10-22T06:51:28.870Z,0.33
2022-10-22T06:53:58.073Z,1.10
2022-10-22T06:56:28.761Z,3.17
2022-10-22T06:58:58.259Z,0.70
2022-10-22T07:01:28.374Z,1.03
2022-10-22T07:03:58.668Z,0.60
2022-10-22T07:06:28.871Z,0.77
2022-10-22T07:08:58.116Z,0.70
2022-10-22T07:11:28.458Z,1.80
2022-10-22T07:13:58.143Z,1.50
2022-10-22T07:16:31.214Z,0.80
2022-10-22T07:19:02.214Z,1.37
2022-10-22T07:21:31.584Z,2.60
2022-10-22T07:24:00.331Z,2.00
2022-10-22T07:26:32.837Z,2.10
2022-10-22T07:29:01.327Z,0.90
2022-10-22T07:31:29.829Z,1.53
2022-10-22T07:33:58.627Z,0.80
2022-10-22T07:36:28.361Z,1.43
2022-10-22T07:38:58.454Z,0.90
2022-10-22T07:41:28.042Z,1.70
2022-10-22T07:43:56.464Z,1.33
2022-10-22T07:46:25.272Z,0.60
2022-10-22T07:48:54.001Z,1.07
2022-10-22T07:51:22.633Z,1.10
2022-10-22T07:53:55.359Z,1.83
2022-10-22T07:56:23.732Z,2.40
2022-10-22T07:58:52.056Z,1.57
2022-10-22T08:01:20.421Z,1.03
2022-10-22T08:03:49.013Z,1.63
2022-10-22T08:06:17.884Z,0.97
2022-10-22T08:08:47.028Z,0.70
2022-10-22T08:11:16.852Z,1.23
2022-10-22T08:13:45.973Z,1.40
2022-10-22T08:16:15.219Z,2.20
2022-10-22T08:18:43.929Z,1.17
2022-10-22T08:21:12.263Z,0.60
2022-10-22T08:23:40.751Z,1.30
2022-10-22T08:26:09.237Z,1.10
2022-10-22T08:28:38.927Z,1.27
2022-10-22T08:31:08.518Z,0.70
2022-10-22T08:33:37.233Z,1.27
2022-10-22T08:36:06.701Z,2.23
2022-10-22T08:38:35.436Z,1.30
2022-10-22T08:41:11.008Z,0.60
2022-10-22T08:44:05.147Z,1.00
2022-10-22T08:46:56.772Z,0.50
2022-10-22T08:49:29.006Z,1.10
2022-10-22T08:51:58.615Z,1.30
2022-10-22T08:54:44.269Z,0.70
2022-10-22T08:57:27.594Z,1.27
2022-10-22T09:00:06.076Z,0.80
2022-10-22T09:02:45.147Z,0.80
2022-10-22T09:05:29.385Z,0.87
2022-10-22T09:07:58.427Z,1.07
2022-10-22T09:10:31.371Z,0.70
2022-10-22T09:12:59.820Z,0.60
2022-10-22T09:15:31.491Z,0.77
2022-10-22T09:18:12.128Z,0.70
2022-10-22T09:20:46.744Z,1.23
2022-10-22T09:23:25.673Z,0.43
2022-10-22T09:25:55.498Z,0.90
2022-10-22T09:28:23.838Z,1.00
2022-10-22T09:30:53.838Z,0.87
2022-10-22T09:33:26.109Z,0.90
2022-10-22T09:35:56.584Z,1.70
2022-10-22T09:38:27.952Z,0.50
2022-10-22T09:40:58.416Z,0.83
2022-10-22T09:43:26.931Z,0.60
2022-10-22T09:46:00.249Z,0.50
2022-10-22T09:48:32.251Z,1.30
2022-10-22T09:51:11.467Z,0.67
2022-10-22T09:53:43.971Z,0.80
2022-10-22T09:56:22.616Z,1.10
2022-10-22T09:58:52.561Z,1.40
2022-10-22T10:01:25.665Z,1.07
2022-10-22T10:03:54.544Z,1.70
2022-10-22T10:06:24.459Z,0.87
2022-10-22T10:08:52.851Z,0.93
2022-10-22T10:11:29.660Z,0.50
2022-10-22T10:14:09.529Z,1.20
2022-10-22T10:16:59.257Z,0.73
2022-10-22T10:19:44.670Z,0.30
2022-10-22T10:22:28.781Z,0.87
2022-10-22T10:25:19.248Z,0.80
2022-10-22T10:27:55.561Z,0.63
2022-10-22T10:30:27.229Z,0.60
2022-10-22T10:33:11.455Z,0.97
2022-10-22T10:35:47.492Z,0.90
2022-10-22T10:38:33.436Z,0.80
2022-10-22T10:41:09.444Z,0.93
2022-10-22T10:43:47.518Z,1.00
2022-10-22T10:46:23.296Z,0.60
2022-10-22T10:48:57.128Z,0.90
2022-10-22T10:51:37.183Z,0.60
2022-10-22T10:54:17.425Z,0.90
2022-10-22T10:56:50.360Z,0.87
2022-10-22T10:59:24.900Z,0.63
2022-10-22T11:02:32.381Z,0.53
2022-10-22T11:05:29.967Z,0.73
2022-10-22T11:08:02.476Z,0.70
2022-10-22T11:10:37.318Z,0.43
2022-10-22T11:13:12.522Z,0.97
2022-10-22T11:15:42.325Z,0.50
2022-10-22T11:18:19.293Z,1.30
2022-10-22T11:20:56.500Z,0.50
2022-10-22T11:23:31.872Z,0.97
2022-10-22T11:26:02.695Z,1.00
2022-10-22T11:28:35.064Z,0.60
2022-10-22T11:31:08.545Z,0.40
2022-10-22T11:33:44.965Z,0.67
2022-10-22T11:36:15.696Z,0.73
2022-10-22T11:38:44.225Z,0.50
2022-10-22T11:41:15.245Z,0.47
2022-10-22T11:44:07.020Z,0.53
2022-10-22T11:46:46.533Z,0.60
2022-10-22T11:49:25.687Z,0.50
2022-10-22T11:52:23.058Z,1.10
2022-10-22T11:54:56.233Z,0.43
2022-10-22T11:57:29.292Z,0.80
2022-10-22T12:00:01.553Z,0.70
2022-10-22T12:02:44.966Z,0.60
2022-10-22T12:05:43.237Z,0.30
2022-10-22T12:08:23.778Z,0.50
2022-10-22T12:11:04.963Z,0.83
2022-10-22T12:13:35.882Z,0.50
2022-10-22T12:16:05.852Z,0.87
2022-10-22T12:18:42.621Z,0.50
2022-10-22T12:21:14.394Z,0.60
2022-10-22T12:23:46.912Z,0.83
2022-10-22T12:29:04.542Z,0.53
2022-10-22T12:31:38.463Z,0.80
2022-10-22T12:34:08.202Z,0.60
2022-10-22T12:36:37.899Z,0.30
2022-10-22T12:39:15.015Z,0.37
2022-10-22T12:41:44.267Z,0.90
2022-10-22T12:44:14.705Z,0.80
2022-10-22T12:46:45.537Z,0.90
2022-10-22T12:49:18.372Z,0.63
2022-10-22T12:51:47.987Z,1.10
2022-10-22T12:54:27.116Z,0.47
2022-10-22T12:56:56.676Z,0.43
2022-10-22T12:59:28.031Z,1.07
2022-10-22T13:01:57.706Z,1.40
2022-10-22T13:04:37.668Z,0.80
2022-10-22T13:07:19.716Z,1.17
2022-10-22T13:10:00.364Z,0.40
2022-10-22T13:12:35.900Z,0.60
2022-10-22T13:15:23.806Z,0.60
2022-10-22T13:17:52.072Z,0.40
2022-10-22T13:20:23.010Z,0.30
2022-10-22T13:22:58.191Z,0.60
2022-10-22T13:25:30.122Z,0.50
2022-10-22T13:28:00.859Z,0.40
2022-10-22T13:30:30.908Z,0.70
2022-10-22T13:33:01.285Z,1.07
2022-10-22T13:35:32.980Z,0.77
2022-10-22T13:38:01.424Z,0.53
2022-10-22T13:40:31.132Z,0.53
2022-10-22T13:42:59.604Z,1.00
2022-10-22T13:45:28.082Z,1.07
2022-10-22T13:47:57.231Z,0.90
2022-10-22T13:50:25.587Z,0.63
2022-10-22T13:52:56.410Z,0.50
2022-10-22T13:55:26.878Z,0.90
2022-10-22T13:57:57.791Z,2.53
2022-10-22T14:00:26.875Z,1.00
2022-10-22T14:02:58.277Z,0.50
2022-10-22T14:05:26.841Z,0.60
2022-10-22T14:07:55.320Z,0.40
2022-10-22T14:10:25.556Z,1.60
2022-10-22T14:12:54.181Z,0.73
2022-10-22T14:15:25.379Z,0.83
2022-10-22T14:17:56.886Z,0.70
2022-10-22T14:20:29.020Z,1.13
2022-10-22T14:22:57.882Z,1.03
2022-10-22T14:25:28.027Z,1.00
2022-10-22T14:27:56.689Z,1.20
2022-10-22T14:30:29.803Z,1.37
2022-10-22T14:32:59.718Z,0.50
2022-10-22T14:35:27.968Z,0.93
2022-10-22T14:37:58.373Z,1.37
2022-10-22T14:40:26.714Z,1.30
2022-10-22T14:42:55.012Z,0.97
2022-10-22T14:45:27.283Z,1.87
2022-10-22T14:47:56.337Z,1.90
2022-10-22T14:50:25.483Z,1.43
2022-10-22T14:52:53.799Z,1.70
2022-10-22T14:55:22.298Z,0.70
2022-10-22T14:57:50.545Z,1.57
2022-10-22T15:00:21.388Z,1.30
2022-10-22T15:02:51.049Z,1.03
2022-10-22T15:05:19.675Z,0.93
2022-10-22T15:07:47.899Z,1.13
2022-10-22T15:10:16.280Z,0.80
2022-10-22T15:12:44.577Z,1.50
2022-10-22T15:15:13.100Z,2.73
2022-10-22T15:17:41.460Z,4.47
2022-10-22T15:20:11.644Z,2.97
2022-10-22T15:22:40.360Z,1.80
2022-10-22T15:25:10.469Z,1.67
2022-10-22T15:27:38.809Z,1.20
2022-10-22T15:30:09.307Z,2.10
2022-10-22T15:32:37.626Z,1.97
2022-10-22T15:35:08.207Z,2.00
2022-10-22T15:37:41.247Z,1.60
2022-10-22T15:40:10.268Z,1.80
2022-10-22T15:42:38.909Z,3.10
2022-10-22T15:45:09.126Z,8.40
2022-10-22T15:47:37.348Z,15.53
2022-10-22T15:50:06.087Z,10.83
2022-10-22T15:52:34.415Z,10.77
2022-10-22T15:55:07.129Z,7.50
2022-10-22T15:57:35.404Z,6.77
2022-10-22T16:00:03.858Z,6.83
2022-10-22T16:02:32.132Z,2.83
2022-10-22T16:05:00.481Z,2.57
2022-10-22T16:07:28.749Z,3.60
2022-10-22T16:09:57.829Z,1.87
2022-10-22T16:12:27.854Z,2.90
2022-10-22T16:14:56.103Z,2.37
2022-10-22T16:17:24.613Z,2.47
2022-10-22T16:19:52.910Z,1.90
2022-10-22T16:22:21.153Z,4.80
2022-10-22T16:24:49.378Z,3.37
2022-10-22T16:27:17.700Z,2.67
2022-10-22T16:29:47.370Z,1.70
2022-10-22T16:32:16.572Z,2.03
2022-10-22T16:34:44.935Z,2.10
2022-10-22T16:37:13.333Z,1.70
2022-10-22T16:39:41.714Z,2.70
2022-10-22T16:42:10.045Z,1.47
2022-10-22T16:44:38.464Z,0.87
2022-10-22T16:47:08.188Z,1.20
2022-10-22T16:49:36.560Z,0.80
2022-10-22T16:52:06.050Z,0.90
2022-10-22T16:54:34.991Z,1.37
2022-10-22T16:57:04.001Z,1.30
2022-10-22T16:59:32.900Z,1.00
2022-10-22T17:02:01.878Z,1.43
2022-10-22T17:04:31.580Z,1.37
2022-10-22T17:06:59.819Z,0.63
2022-10-22T17:09:28.135Z,0.40
2022-10-22T17:11:56.742Z,0.77
2022-10-22T17:14:25.556Z,2.63
2022-10-22T17:16:54.220Z,1.13
2022-10-22T17:19:24.101Z,2.27
2022-10-22T17:21:54.435Z,1.53
2022-10-22T17:24:23.074Z,1.20
2022-10-22T17:26:51.628Z,2.10
2022-10-22T17:29:22.009Z,1.00
2022-10-22T17:31:50.445Z,1.33
2022-10-22T17:34:18.766Z,0.63
2022-10-22T17:36:47.307Z,0.87
2022-10-22T17:39:19.895Z,0.67
2022-10-22T17:41:48.450Z,0.93
2022-10-22T17:44:17.417Z,0.30
2022-10-22T17:46:46.009Z,0.90
2022-10-22T17:49:18.648Z,0.50
2022-10-22T17:51:47.379Z,0.77
2022-10-22T17:54:17.629Z,1.03
2022-10-22T17:56:46.054Z,0.50
2022-10-22T17:59:16.364Z,0.57
2022-10-22T18:01:45.919Z,0.33
2022-10-22T18:04:17.708Z,1.00
2022-10-22T18:06:47.094Z,0.63
2022-10-22T18:09:19.271Z,0.47
2022-10-22T18:11:47.900Z,0.50
2022-10-22T18:14:16.159Z,0.37
2022-10-22T18:16:44.405Z,0.60
2022-10-22T18:19:15.556Z,0.50
2022-10-22T18:21:44.063Z,1.13
2022-10-22T18:24:12.794Z,0.80
2022-10-22T18:26:42.949Z,0.83
2022-10-22T18:29:12.165Z,0.53
2022-10-22T18:31:40.830Z,1.23
2022-10-22T18:34:09.250Z,0.40
2022-10-22T18:36:38.625Z,1.03
2022-10-22T18:39:07.147Z,1.57
2022-10-22T18:41:36.031Z,1.00
2022-10-22T18:44:08.354Z,1.10
2022-10-22T18:46:38.458Z,0.60
2022-10-22T18:49:08.281Z,1.63
2022-10-22T18:51:37.273Z,0.63
2022-10-22T18:54:21.775Z,0.97
2022-10-22T18:56:51.369Z,0.60
2022-10-22T18:59:23.250Z,0.50
2022-10-22T19:01:53.189Z,0.63
2022-10-22T19:04:21.496Z,0.57
2022-10-22T19:06:49.998Z,0.70
2022-10-22T19:09:18.378Z,0.70
2022-10-22T19:11:47.055Z,0.90
2022-10-22T19:14:19.503Z,0.73
2022-10-22T19:16:49.830Z,0.60
2022-10-22T19:19:20.874Z,0.37
2022-10-22T19:21:50.006Z,1.37
2022-10-22T19:24:20.316Z,0.60
2022-10-22T19:26:49.630Z,0.97
2022-10-22T19:29:19.835Z,1.37
2022-10-22T19:31:51.210Z,1.20
2022-10-22T19:34:19.817Z,1.60
2022-10-22T19:36:48.215Z,1.20
2022-10-22T19:39:17.545Z,0.80
2022-10-22T19:41:45.879Z,0.50
2022-10-22T19:44:14.111Z,0.30
2022-10-22T19:46:42.745Z,0.60
2022-10-22T19:49:12.540Z,0.50
2022-10-22T19:51:41.097Z,0.40
2022-10-22T19:54:15.756Z,0.37
2022-10-22T19:56:44.017Z,0.40
2022-10-22T19:59:12.574Z,0.47
2022-10-22T20:01:40.924Z,0.40
2022-10-22T20:04:09.331Z,0.40
2022-10-22T20:06:39.520Z,1.43
2022-10-22T20:09:07.805Z,0.83
2022-10-22T20:11:35.951Z,1.03
2022-10-22T20:14:04.756Z,0.43
2022-10-22T20:16:33.354Z,0.40
2022-10-22T20:19:02.877Z,0.40
2022-10-22T20:21:32.400Z,0.40
2022-10-22T20:24:03.113Z,0.33
2022-10-22T20:26:31.861Z,0.70
2022-10-22T20:29:00.512Z,0.30
2022-10-22T20:31:30.888Z,0.57
2022-10-22T20:34:01.221Z,0.30
2022-10-22T20:36:31.674Z,0.30
2022-10-22T20:39:03.526Z,0.40
2022-10-22T20:41:31.864Z,0.90
2022-10-22T20:44:00.080Z,0.30
2022-10-22T20:46:30.350Z,0.53
2022-10-22T20:49:01.380Z,0.80
2022-10-22T20:51:29.892Z,0.50
2022-10-22T20:53:58.433Z,0.27
2022-10-22T20:56:28.313Z,0.50
2022-10-22T20:59:04.580Z,0.50
2022-10-22T21:01:35.043Z,1.13
2022-10-22T21:04:03.301Z,0.30
2022-10-22T21:06:31.829Z,0.30
2022-10-22T21:09:00.161Z,0.77
2022-10-22T21:11:29.819Z,0.30
2022-10-22T21:13:58.297Z,1.37
2022-10-22T21:16:26.658Z,1.37
2022-10-22T21:18:54.928Z,0.40
2022-10-22T21:21:23.293Z,0.40
2022-10-22T21:23:51.695Z,1.00
2022-10-22T21:26:20.356Z,0.97
2022-10-22T21:28:50.159Z,0.67
2022-10-22T21:31:22.123Z,0.30
2022-10-22T21:33:51.732Z,0.50
2022-10-22T21:36:22.964Z,0.90
2022-10-22T21:38:52.279Z,0.70
2022-10-22T21:41:22.663Z,0.93
2022-10-22T21:43:52.801Z,0.50
2022-10-22T21:46:22.495Z,0.33
2022-10-22T21:48:54.884Z,0.57
2022-10-22T21:51:24.283Z,0.70
2022-10-22T21:53:53.031Z,0.60
2022-10-22T21:56:23.414Z,0.40
2022-10-22T21:58:53.493Z,0.33
2022-10-22T22:01:22.171Z,0.77
2022-10-22T22:03:51.618Z,0.40
2022-10-22T22:06:22.014Z,0.30
2022-10-22T22:08:51.088Z,0.77
2022-10-22T22:11:21.599Z,0.50
2022-10-22T22:13:50.167Z,0.30
2022-10-22T22:16:25.401Z,0.57
2022-10-22T22:18:57.153Z,0.40
2022-10-22T22:21:25.469Z,0.30
2022-10-22T22:23:53.710Z,0.30
2022-10-22T22:26:28.244Z,0.47
2022-10-22T22:28:59.412Z,0.70
2022-10-22T22:31:30.831Z,0.30
2022-10-22T22:34:03.749Z,0.20
2022-10-22T22:36:35.873Z,0.60
2022-10-22T22:39:04.783Z,0.40
2022-10-22T22:41:33.004Z,0.70
2022-10-22T22:44:01.662Z,0.20
2022-10-22T22:46:31.392Z,0.27
2022-10-22T22:48:59.837Z,0.77
2022-10-22T22:51:28.544Z,0.70
2022-10-22T22:53:58.428Z,0.40
2022-10-22T22:56:28.444Z,0.53
2022-10-22T22:58:56.934Z,0.60
2022-10-22T23:01:27.304Z,0.30
2022-10-22T23:03:59.350Z,0.60
2022-10-22T23:06:29.026Z,0.40
2022-10-22T23:08:58.102Z,0.30
2022-10-22T23:11:27.572Z,0.50
2022-10-22T23:13:58.554Z,0.20
2022-10-22T23:16:28.607Z,0.30
2022-10-22T23:18:59.104Z,0.33
2022-10-22T23:21:29.412Z,0.60
2022-10-22T23:23:59.315Z,0.40
2022-10-22T23:26:30.114Z,0.60
2022-10-22T23:29:02.139Z,0.40
2022-10-22T23:31:30.495Z,0.77
2022-10-22T23:34:00.399Z,0.60
2022-10-22T23:36:29.263Z,0.43
2022-10-22T23:38:58.183Z,0.50
2022-10-22T23:41:26.477Z,0.70
2022-10-22T23:43:54.725Z,0.40
2022-10-22T23:46:23.047Z,0.30
2022-10-22T23:48:53.848Z,0.60
2022-10-22T23:51:23.929Z,1.23
2022-10-22T23:53:57.264Z,1.33
2022-10-22T23:56:26.296Z,0.40
2022-10-22T23:58:55.884Z,0.50
